createdAt,value
2019-03-09T00:02:18.365Z,9.70
2019-03-09T00:04:45.803Z,10.80
2019-03-09T00:07:13.034Z,12.00
2019-03-09T00:09:41.493Z,10.80
2019-03-09T00:12:09.365Z,9.90
2019-03-09T00:14:37.379Z,11.00
2019-03-09T00:17:04.872Z,10.80
2019-03-09T00:19:33.666Z,10.00
2019-03-09T00:22:02.550Z,9.40
2019-03-09T00:24:48.688Z,9.90
2019-03-09T00:27:32.455Z,8.70
2019-03-09T00:30:19.916Z,9.00
2019-03-09T00:32:47.784Z,8.60
2019-03-09T00:35:15.000Z,7.70
2019-03-09T00:37:43.890Z,8.50
2019-03-09T00:40:12.931Z,9.20
2019-03-09T00:42:42.164Z,9.10
2019-03-09T00:45:11.335Z,10.90
2019-03-09T00:47:39.897Z,10.40
2019-03-09T00:50:08.791Z,12.00
2019-03-09T00:52:37.578Z,13.20
2019-03-09T00:55:06.517Z,16.50
2019-03-09T00:57:34.066Z,16.40
2019-03-09T01:00:03.153Z,17.40
2019-03-09T01:02:31.398Z,19.90
2019-03-09T01:04:59.481Z,20.80
2019-03-09T01:07:28.571Z,20.80
2019-03-09T01:09:56.227Z,25.20
2019-03-09T01:12:24.302Z,26.90
2019-03-09T01:14:53.018Z,33.50
2019-03-09T01:17:21.370Z,37.50
2019-03-09T01:19:50.261Z,39.30
2019-03-09T01:22:18.717Z,46.30
2019-03-09T01:24:46.494Z,54.20
2019-03-09T01:27:15.090Z,60.10
2019-03-09T01:29:43.859Z,61.80
2019-03-09T01:32:11.303Z,64.60
2019-03-09T01:34:39.786Z,66.30
2019-03-09T01:37:09.330Z,71.10
2019-03-09T01:39:37.079Z,74.10
2019-03-09T01:42:05.300Z,72.50
2019-03-09T01:44:34.151Z,74.00
2019-03-09T01:47:02.849Z,76.50
2019-03-09T01:49:31.730Z,78.40
2019-03-09T01:52:00.219Z,82.30
2019-03-09T01:54:28.946Z,83.60
2019-03-09T01:56:57.778Z,86.80
2019-03-09T01:59:24.970Z,86.40
2019-03-09T02:01:53.156Z,87.50
2019-03-09T02:04:22.018Z,88.10
2019-03-09T02:06:50.839Z,87.80
2019-03-09T02:09:20.286Z,88.10
2019-03-09T02:11:47.714Z,87.60
2019-03-09T02:14:16.298Z,89.10
2019-03-09T02:16:45.314Z,90.90
2019-03-09T02:19:13.294Z,92.50
2019-03-09T02:21:41.671Z,92.60
2019-03-09T02:24:11.062Z,94.40
2019-03-09T02:26:38.572Z,95.50
2019-03-09T02:29:06.777Z,97.50
2019-03-09T02:31:35.031Z,98.90
2019-03-09T02:34:03.109Z,99.50
2019-03-09T02:36:31.691Z,99.90
2019-03-09T02:39:12.006Z,99.90
2019-03-09T02:41:39.411Z,99.90
2019-03-09T02:44:06.474Z,99.90
2019-03-09T02:46:33.646Z,99.90
2019-03-09T02:49:00.808Z,99.90
2019-03-09T02:51:28.856Z,99.90
2019-03-09T02:53:57.032Z,99.90
2019-03-09T02:56:25.098Z,99.90
2019-03-09T02:58:53.502Z,99.90
2019-03-09T03:01:38.135Z,99.90
2019-03-09T03:04:06.189Z,99.90
2019-03-09T03:06:34.391Z,99.90
2019-03-09T03:09:04.629Z,99.90
2019-03-09T03:11:32.769Z,99.90
2019-03-09T03:14:01.021Z,99.90
2019-03-09T03:16:29.110Z,99.90
2019-03-09T03:18:57.346Z,99.90
2019-03-09T03:21:25.397Z,99.90
2019-03-09T03:23:53.625Z,99.90
2019-03-09T03:26:21.889Z,99.90
2019-03-09T03:28:50.027Z,99.90
2019-03-09T03:31:18.101Z,99.90
2019-03-09T03:33:46.183Z,99.90
2019-03-09T03:36:14.292Z,99.90
2019-03-09T03:38:42.447Z,99.90
2019-03-09T03:41:10.600Z,99.90
2019-03-09T03:43:38.744Z,99.90
2019-03-09T03:46:06.905Z,99.90
2019-03-09T03:48:35.156Z,99.90
2019-03-09T03:51:03.436Z,99.90
2019-03-09T03:53:34.659Z,99.90
2019-03-09T03:56:01.840Z,99.90
2019-03-09T03:58:29.146Z,99.90
2019-03-09T04:00:57.305Z,99.90
2019-03-09T04:03:25.889Z,99.90
2019-03-09T04:05:56.794Z,99.90
2019-03-09T04:08:24.012Z,99.90
2019-03-09T04:10:52.450Z,99.90
2019-03-09T04:13:20.523Z,99.90
2019-03-09T04:15:49.035Z,99.90
2019-03-09T04:18:17.102Z,99.90
2019-03-09T04:20:45.507Z,99.90
2019-03-09T04:23:13.639Z,99.90
2019-03-09T04:25:41.797Z,99.90
2019-03-09T04:28:10.527Z,99.90
2019-03-09T04:30:38.684Z,99.90
2019-03-09T04:33:07.095Z,99.90
2019-03-09T04:35:34.817Z,99.90
2019-03-09T04:38:03.294Z,99.90
2019-03-09T04:40:33.615Z,99.90
2019-03-09T04:43:01.478Z,99.90
2019-03-09T04:45:28.799Z,99.90
2019-03-09T04:47:57.522Z,99.90
2019-03-09T04:50:26.194Z,99.90
2019-03-09T04:52:53.390Z,99.90
2019-03-09T04:55:22.046Z,99.90
2019-03-09T04:57:50.525Z,99.90
2019-03-09T05:00:18.762Z,99.90
2019-03-09T05:02:47.018Z,99.90
2019-03-09T05:05:15.492Z,99.90
2019-03-09T05:07:46.354Z,99.90
2019-03-09T05:10:36.211Z,99.90
2019-03-09T05:13:07.054Z,99.90
2019-03-09T05:15:34.310Z,99.90
2019-03-09T05:18:01.863Z,99.90
2019-03-09T05:20:29.590Z,99.90
2019-03-09T05:22:58.194Z,99.90
2019-03-09T05:25:26.581Z,99.90
2019-03-09T05:27:54.745Z,99.90
2019-03-09T05:30:36.410Z,99.90
2019-03-09T05:33:05.552Z,99.90
2019-03-09T05:35:34.366Z,99.90
2019-03-09T05:38:03.567Z,99.90
2019-03-09T05:40:35.208Z,99.90
2019-03-09T05:43:03.509Z,99.90
2019-03-09T05:45:31.821Z,99.90
2019-03-09T05:47:59.273Z,99.90
2019-03-09T05:50:27.034Z,99.90
2019-03-09T05:53:03.098Z,99.90
2019-03-09T05:55:31.581Z,99.90
2019-03-09T05:58:01.941Z,99.90
2019-03-09T06:00:31.278Z,99.90
2019-03-09T06:02:59.765Z,99.90
2019-03-09T06:05:35.863Z,99.90
2019-03-09T06:08:05.250Z,99.90
2019-03-09T06:10:33.740Z,99.90
2019-03-09T06:13:02.215Z,99.90
2019-03-09T06:15:30.734Z,99.90
2019-03-09T06:17:59.495Z,99.90
2019-03-09T06:20:27.966Z,99.90
2019-03-09T06:22:56.449Z,99.90
2019-03-09T06:25:24.639Z,99.90
2019-03-09T06:27:53.313Z,99.90
2019-03-09T06:30:21.714Z,99.90
2019-03-09T06:33:28.965Z,99.90
2019-03-09T06:36:20.286Z,99.90
2019-03-09T06:39:16.910Z,99.90
2019-03-09T06:42:26.267Z,99.90
2019-03-09T06:44:57.218Z,99.90
2019-03-09T06:47:27.095Z,99.90
2019-03-09T06:49:56.338Z,99.90
2019-03-09T06:52:25.315Z,99.90
2019-03-09T06:54:53.806Z,99.90
2019-03-09T06:57:21.965Z,99.90
2019-03-09T06:59:51.166Z,99.90
2019-03-09T07:02:19.574Z,99.90
2019-03-09T07:04:47.827Z,99.90
2019-03-09T07:07:16.361Z,99.90
2019-03-09T07:09:44.719Z,99.90
2019-03-09T07:12:13.010Z,99.90
2019-03-09T07:15:26.028Z,99.90
2019-03-09T07:18:05.958Z,99.90
2019-03-09T07:20:34.126Z,99.90
2019-03-09T07:23:02.587Z,99.90
2019-03-09T07:25:31.339Z,99.90
2019-03-09T07:28:07.344Z,99.90
2019-03-09T07:30:36.026Z,99.90
2019-03-09T07:33:04.508Z,99.90
2019-03-09T07:35:33.386Z,99.90
2019-03-09T07:38:02.188Z,99.90
2019-03-09T07:40:33.019Z,99.90
2019-03-09T07:43:01.313Z,99.90
2019-03-09T07:45:30.187Z,99.90
2019-03-09T07:47:58.771Z,99.90
2019-03-09T07:50:27.458Z,99.90
2019-03-09T07:52:55.890Z,99.90
2019-03-09T07:55:24.742Z,99.90
2019-03-09T07:57:58.881Z,99.90
2019-03-09T08:00:27.319Z,99.90
2019-03-09T08:02:55.809Z,99.90
2019-03-09T08:05:23.997Z,99.90
2019-03-09T08:07:52.347Z,99.90
2019-03-09T08:10:21.408Z,99.90
2019-03-09T08:12:49.584Z,99.90
2019-03-09T08:15:18.224Z,99.90
2019-03-09T08:17:46.652Z,99.90
2019-03-09T08:20:15.031Z,99.90
2019-03-09T08:22:43.278Z,99.90
2019-03-09T08:25:15.112Z,99.90
2019-03-09T08:27:42.636Z,99.90
2019-03-09T08:30:12.641Z,99.90
2019-03-09T08:32:41.178Z,99.90
2019-03-09T08:35:10.072Z,99.90
2019-03-09T08:37:41.402Z,99.90
2019-03-09T08:40:09.567Z,99.90
2019-03-09T08:42:36.894Z,99.90
2019-03-09T08:45:05.722Z,99.90
2019-03-09T08:47:34.003Z,99.90
2019-03-09T08:50:01.353Z,99.90
2019-03-09T08:52:29.660Z,99.90
2019-03-09T08:54:58.142Z,99.90
2019-03-09T08:57:25.304Z,99.90
2019-03-09T08:59:53.468Z,99.90
2019-03-09T09:02:22.611Z,99.90
2019-03-09T09:04:51.111Z,99.90
2019-03-09T09:07:19.172Z,99.90
2019-03-09T09:09:47.232Z,99.90
2019-03-09T09:12:15.566Z,99.90
2019-03-09T09:14:48.299Z,99.90
2019-03-09T09:17:16.558Z,99.90
2019-03-09T09:19:44.763Z,99.90
2019-03-09T09:22:13.044Z,99.90
2019-03-09T09:24:41.567Z,99.90
2019-03-09T09:27:09.711Z,99.90
2019-03-09T09:29:38.056Z,99.90
2019-03-09T09:32:06.498Z,99.90
2019-03-09T09:34:34.691Z,99.90
2019-03-09T09:37:03.043Z,99.90
2019-03-09T09:39:34.611Z,99.90
2019-03-09T09:42:03.537Z,99.90
2019-03-09T09:44:31.888Z,99.90
2019-03-09T09:46:59.926Z,99.90
2019-03-09T09:49:32.583Z,99.90
2019-03-09T09:51:59.813Z,99.90
2019-03-09T09:54:26.983Z,99.90
2019-03-09T09:56:54.042Z,99.90
2019-03-09T09:59:23.886Z,99.90
2019-03-09T10:01:51.032Z,99.90
2019-03-09T10:04:18.242Z,99.90
2019-03-09T10:06:45.341Z,98.90
2019-03-09T10:09:13.621Z,89.50
2019-03-09T10:11:41.678Z,90.20
2019-03-09T10:14:14.732Z,90.70
2019-03-09T10:16:41.698Z,91.80
2019-03-09T10:19:13.082Z,88.60
2019-03-09T10:21:40.361Z,87.50
2019-03-09T10:24:08.060Z,83.40
2019-03-09T10:26:36.206Z,83.80
2019-03-09T10:29:04.312Z,78.50
2019-03-09T10:31:32.409Z,76.90
2019-03-09T10:34:00.566Z,76.90
2019-03-09T10:36:28.618Z,70.80
2019-03-09T10:38:56.707Z,69.20
2019-03-09T10:41:24.972Z,66.80
2019-03-09T10:43:53.035Z,64.50
2019-03-09T10:46:24.163Z,64.50
2019-03-09T10:48:51.485Z,63.20
2019-03-09T10:51:18.656Z,58.50
2019-03-09T10:53:46.926Z,52.60
2019-03-09T10:56:15.344Z,52.40
2019-03-09T10:58:42.583Z,52.40
2019-03-09T11:01:10.945Z,52.50
2019-03-09T11:04:05.164Z,52.10
2019-03-09T11:06:32.351Z,49.40
2019-03-09T11:08:59.570Z,48.90
2019-03-09T11:11:26.758Z,48.30
2019-03-09T11:13:53.970Z,45.70
2019-03-09T11:16:21.257Z,48.10
2019-03-09T11:18:49.425Z,43.30
2019-03-09T11:21:17.450Z,43.20
2019-03-09T11:23:44.542Z,42.80
2019-03-09T11:26:12.778Z,40.20
2019-03-09T11:28:44.339Z,41.20
2019-03-09T11:31:13.075Z,36.60
2019-03-09T11:33:41.542Z,38.70
2019-03-09T11:36:09.780Z,37.50
2019-03-09T11:38:38.254Z,34.30
2019-03-09T11:41:18.560Z,34.50
2019-03-09T11:43:39.509Z,32.10
2019-03-09T11:46:08.305Z,30.10
2019-03-09T11:48:35.654Z,28.50
2019-03-09T11:51:04.139Z,26.80
2019-03-09T11:53:33.017Z,26.30
2019-03-09T11:56:01.526Z,24.40
2019-03-09T11:58:29.845Z,23.20
2019-03-09T12:00:58.114Z,21.90
2019-03-09T12:03:27.314Z,21.00
2019-03-09T12:05:58.189Z,19.50
2019-03-09T12:08:26.715Z,18.50
2019-03-09T12:10:55.162Z,16.80
2019-03-09T12:13:23.595Z,14.60
2019-03-09T12:15:52.030Z,16.40
2019-03-09T12:18:20.960Z,12.80
2019-03-09T12:20:49.423Z,14.40
2019-03-09T12:23:19.766Z,14.60
2019-03-09T12:25:48.207Z,13.40
2019-03-09T12:28:19.424Z,12.70
2019-03-09T12:30:47.653Z,12.30
2019-03-09T12:33:16.618Z,12.40
2019-03-09T12:35:44.874Z,11.60
2019-03-09T12:38:13.126Z,9.90
2019-03-09T12:40:44.111Z,7.80
2019-03-09T12:43:12.919Z,8.10
2019-03-09T12:45:40.985Z,6.40
2019-03-09T12:48:09.574Z,6.40
2019-03-09T12:50:38.342Z,6.90
2019-03-09T12:53:10.990Z,3.60
2019-03-09T12:55:38.495Z,3.90
2019-03-09T12:58:05.938Z,6.10
2019-03-09T13:00:34.127Z,1.40
2019-03-09T13:03:01.725Z,2.20
2019-03-09T13:05:29.346Z,1.00
2019-03-09T13:07:58.247Z,1.20
2019-03-09T13:10:26.427Z,1.00
2019-03-09T13:12:55.494Z,1.00
2019-03-09T13:15:23.862Z,1.00
2019-03-09T13:17:52.386Z,1.00
2019-03-09T13:20:24.919Z,1.00
2019-03-09T13:22:54.296Z,1.00
2019-03-09T13:25:21.409Z,1.00
2019-03-09T13:27:49.570Z,1.00
2019-03-09T13:30:18.150Z,1.00
2019-03-09T13:32:51.930Z,1.00
2019-03-09T13:35:20.743Z,1.00
2019-03-09T13:37:49.219Z,1.00
2019-03-09T13:40:17.759Z,1.00
2019-03-09T13:42:45.260Z,1.00
2019-03-09T13:45:13.746Z,1.00
2019-03-09T13:47:42.634Z,1.00
2019-03-09T13:50:10.904Z,1.00
2019-03-09T13:52:40.378Z,1.00
2019-03-09T13:55:09.212Z,1.00
2019-03-09T13:57:37.593Z,1.00
2019-03-09T14:00:08.065Z,1.00
2019-03-09T14:02:36.594Z,1.00
2019-03-09T14:05:05.223Z,1.00
2019-03-09T14:07:33.683Z,1.00
2019-03-09T14:10:02.142Z,1.00
2019-03-09T14:12:31.239Z,1.50
2019-03-09T14:14:59.714Z,10.80
2019-03-09T14:17:28.118Z,21.70
2019-03-09T14:19:56.772Z,13.90
2019-03-09T14:22:24.334Z,28.50
2019-03-09T14:24:52.768Z,41.20
2019-03-09T14:27:20.081Z,47.20
2019-03-09T14:29:48.485Z,52.60
2019-03-09T14:32:17.007Z,62.30
2019-03-09T14:34:45.020Z,64.70
2019-03-09T14:37:13.247Z,63.90
2019-03-09T14:39:41.666Z,65.20
2019-03-09T14:42:09.802Z,70.50
2019-03-09T14:44:37.869Z,69.70
2019-03-09T14:47:06.030Z,77.30
2019-03-09T14:49:34.209Z,79.50
2019-03-09T14:52:02.263Z,93.60
2019-03-09T14:54:30.421Z,96.00
2019-03-09T14:56:58.850Z,99.90
2019-03-09T14:59:25.799Z,99.90
2019-03-09T15:01:53.830Z,99.30
2019-03-09T15:04:21.883Z,99.90
2019-03-09T15:06:49.927Z,98.80
2019-03-09T15:09:19.246Z,99.00
2019-03-09T15:11:47.720Z,99.90
2019-03-09T15:14:15.043Z,99.90
2019-03-09T15:16:43.957Z,98.30
2019-03-09T15:19:12.538Z,97.80
2019-03-09T15:21:40.830Z,98.00
2019-03-09T15:24:09.509Z,99.70
2019-03-09T15:26:37.938Z,98.10
2019-03-09T15:29:06.371Z,96.40
2019-03-09T15:31:35.158Z,96.30
2019-03-09T15:34:02.195Z,95.70
2019-03-09T15:36:35.389Z,96.20
2019-03-09T15:39:04.722Z,96.10
2019-03-09T15:41:32.484Z,98.60
2019-03-09T15:44:00.126Z,98.20
2019-03-09T15:46:27.620Z,96.50
2019-03-09T15:48:55.997Z,96.80
2019-03-09T15:51:23.514Z,99.90
2019-03-09T15:53:51.810Z,98.00
2019-03-09T15:56:19.657Z,95.90
2019-03-09T15:58:47.119Z,96.80
2019-03-09T16:01:16.214Z,92.90
2019-03-09T16:03:43.570Z,92.30
2019-03-09T16:06:11.961Z,94.60
2019-03-09T16:08:41.154Z,94.20
2019-03-09T16:11:08.756Z,94.70
2019-03-09T16:13:37.121Z,94.10
2019-03-09T16:16:05.578Z,91.80
2019-03-09T16:18:34.575Z,89.30
2019-03-09T16:21:02.727Z,88.30
2019-03-09T16:23:31.798Z,91.30
2019-03-09T16:25:59.533Z,85.80
2019-03-09T16:28:27.969Z,77.30
2019-03-09T16:30:57.603Z,94.20
2019-03-09T16:33:26.580Z,98.50
2019-03-09T16:35:54.951Z,99.90
2019-03-09T16:38:25.582Z,99.90
2019-03-09T16:41:07.019Z,99.00
2019-03-09T16:43:34.325Z,97.80
2019-03-09T16:46:01.682Z,96.50
2019-03-09T16:48:29.356Z,96.40
2019-03-09T16:50:57.013Z,96.80
2019-03-09T16:53:24.046Z,93.50
2019-03-09T16:55:51.231Z,90.30
2019-03-09T16:58:18.591Z,90.10
2019-03-09T17:00:46.634Z,88.20
2019-03-09T17:03:14.503Z,87.50
2019-03-09T17:05:42.577Z,82.20
2019-03-09T17:08:10.899Z,79.80
2019-03-09T17:10:39.192Z,76.50
2019-03-09T17:13:07.326Z,77.30
2019-03-09T17:15:35.474Z,77.20
2019-03-09T17:18:03.547Z,73.50
2019-03-09T17:20:37.403Z,72.70
2019-03-09T17:23:05.648Z,70.30
2019-03-09T17:25:33.777Z,73.40
2019-03-09T17:28:05.381Z,71.90
2019-03-09T17:30:33.791Z,68.60
2019-03-09T17:33:01.075Z,68.70
2019-03-09T17:35:32.122Z,64.70
2019-03-09T17:38:00.514Z,64.90
2019-03-09T17:40:31.353Z,63.70
2019-03-09T17:42:58.855Z,63.40
2019-03-09T17:45:27.391Z,62.00
2019-03-09T17:47:55.558Z,65.20
2019-03-09T17:50:24.021Z,61.20
2019-03-09T17:52:52.186Z,60.00
2019-03-09T17:55:22.691Z,58.00
2019-03-09T17:57:50.630Z,57.10
2019-03-09T18:00:20.642Z,55.50
2019-03-09T18:02:48.923Z,56.30
2019-03-09T18:05:16.867Z,56.30
2019-03-09T18:07:45.367Z,54.80
2019-03-09T18:10:25.559Z,53.10
2019-03-09T18:12:53.066Z,51.40
2019-03-09T18:15:20.937Z,49.40
2019-03-09T18:17:48.688Z,47.40
2019-03-09T18:20:16.861Z,49.60
2019-03-09T18:22:49.064Z,44.70
2019-03-09T18:25:17.341Z,45.90
2019-03-09T18:27:45.703Z,45.40
2019-03-09T18:30:14.911Z,45.50
2019-03-09T18:32:42.844Z,44.20
2019-03-09T18:35:10.995Z,42.60
2019-03-09T18:37:39.144Z,42.80
2019-03-09T18:40:07.641Z,41.70
2019-03-09T18:42:35.878Z,41.70
2019-03-09T18:45:03.418Z,42.30
2019-03-09T18:47:31.638Z,40.30
2019-03-09T18:49:59.562Z,38.30
2019-03-09T18:52:27.902Z,37.60
2019-03-09T18:54:55.822Z,38.20
2019-03-09T18:57:26.284Z,35.90
2019-03-09T18:59:53.514Z,35.70
2019-03-09T19:02:20.818Z,36.30
2019-03-09T19:04:52.218Z,35.70
2019-03-09T19:07:19.256Z,38.30
2019-03-09T19:09:46.194Z,33.50
2019-03-09T19:12:14.338Z,34.40
2019-03-09T19:14:42.489Z,34.00
2019-03-09T19:17:10.672Z,33.70
2019-03-09T19:19:39.098Z,34.20
2019-03-09T19:22:07.473Z,35.00
2019-03-09T19:24:35.900Z,34.50
2019-03-09T19:27:04.146Z,36.40
2019-03-09T19:29:33.226Z,31.90
2019-03-09T19:32:01.446Z,31.30
2019-03-09T19:34:33.454Z,34.20
2019-03-09T19:37:08.895Z,32.50
2019-03-09T19:39:40.498Z,31.50
2019-03-09T19:42:11.976Z,30.60
2019-03-09T19:44:39.980Z,31.70
2019-03-09T19:47:07.550Z,31.30
2019-03-09T19:49:35.987Z,30.90
2019-03-09T19:52:03.854Z,32.00
2019-03-09T19:54:31.142Z,30.70
2019-03-09T19:56:58.396Z,29.90
2019-03-09T19:59:26.183Z,30.20
2019-03-09T20:01:53.456Z,29.90
2019-03-09T20:04:20.969Z,30.00
2019-03-09T20:06:48.143Z,29.90
2019-03-09T20:09:15.094Z,30.30
2019-03-09T20:11:43.578Z,31.30
2019-03-09T20:14:10.750Z,31.70
2019-03-09T20:16:38.377Z,31.80
2019-03-09T20:19:07.601Z,31.40
2019-03-09T20:21:35.049Z,31.70
2019-03-09T20:24:02.086Z,31.70
2019-03-09T20:26:30.906Z,32.20
2019-03-09T20:28:58.854Z,32.80
2019-03-09T20:31:27.299Z,31.70
2019-03-09T20:33:55.992Z,32.10
2019-03-09T20:36:27.747Z,32.70
2019-03-09T20:38:55.004Z,34.40
2019-03-09T20:41:22.705Z,35.60
2019-03-09T20:43:50.509Z,37.10
2019-03-09T20:46:18.997Z,37.80
2019-03-09T20:48:46.219Z,39.60
2019-03-09T20:51:14.946Z,38.80
2019-03-09T20:53:43.374Z,38.20
2019-03-09T20:56:11.708Z,38.10
2019-03-09T20:58:40.394Z,38.50
2019-03-09T21:01:07.853Z,38.40
2019-03-09T21:03:36.317Z,38.60
2019-03-09T21:06:04.359Z,37.60
2019-03-09T21:08:32.636Z,36.50
2019-03-09T21:11:04.248Z,37.10
2019-03-09T21:13:31.712Z,36.80
2019-03-09T21:16:00.270Z,34.80
2019-03-09T21:18:27.857Z,35.00
2019-03-09T21:20:56.325Z,34.20
2019-03-09T21:23:24.699Z,34.50
2019-03-09T21:25:53.183Z,34.70
2019-03-09T21:28:22.897Z,33.50
2019-03-09T21:30:50.386Z,31.50
2019-03-09T21:33:18.027Z,30.40
2019-03-09T21:35:46.368Z,29.80
2019-03-09T21:38:14.534Z,28.60
2019-03-09T21:40:42.590Z,28.40
2019-03-09T21:43:10.827Z,27.60
2019-03-09T21:45:39.047Z,28.50
2019-03-09T21:48:07.214Z,26.90
2019-03-09T21:50:35.498Z,27.20
2019-03-09T21:53:03.769Z,26.00
2019-03-09T21:55:32.030Z,25.60
2019-03-09T21:57:58.994Z,25.70
2019-03-09T22:00:27.354Z,25.80
2019-03-09T22:02:55.950Z,27.30
2019-03-09T22:05:24.249Z,25.90
2019-03-09T22:07:53.061Z,24.40
2019-03-09T22:10:21.224Z,24.90
2019-03-09T22:12:50.210Z,24.40
2019-03-09T22:15:17.857Z,23.20
2019-03-09T22:17:46.387Z,22.90
2019-03-09T22:20:14.609Z,22.80
2019-03-09T22:22:43.111Z,24.30
2019-03-09T22:25:11.611Z,21.90
2019-03-09T22:27:40.039Z,22.40
2019-03-09T22:30:09.698Z,20.30
2019-03-09T22:32:37.977Z,19.30
2019-03-09T22:35:09.640Z,20.40
2019-03-09T22:37:36.662Z,19.10
2019-03-09T22:40:05.614Z,17.90
2019-03-09T22:42:33.695Z,18.60
2019-03-09T22:45:01.936Z,16.60
2019-03-09T22:47:31.146Z,16.70
2019-03-09T22:49:58.401Z,16.20
2019-03-09T22:52:27.091Z,17.00
2019-03-09T22:54:55.141Z,16.50
2019-03-09T22:57:23.258Z,15.70
2019-03-09T22:59:51.226Z,16.00
2019-03-09T23:02:19.391Z,14.80
2019-03-09T23:04:47.662Z,14.90
2019-03-09T23:07:16.045Z,14.50
2019-03-09T23:09:44.182Z,14.00
2019-03-09T23:12:12.531Z,14.50
2019-03-09T23:14:40.906Z,14.40
2019-03-09T23:17:08.042Z,14.50
2019-03-09T23:19:36.233Z,13.60
2019-03-09T23:22:04.465Z,13.50
2019-03-09T23:24:32.729Z,13.00
2019-03-09T23:27:02.443Z,12.20
2019-03-09T23:29:30.482Z,10.80
2019-03-09T23:31:58.437Z,12.10
2019-03-09T23:34:26.583Z,12.40
2019-03-09T23:36:54.623Z,11.10
2019-03-09T23:39:22.742Z,11.00
2019-03-09T23:41:50.983Z,10.40
2019-03-09T23:44:19.110Z,10.40
2019-03-09T23:46:47.254Z,10.30
2019-03-09T23:49:15.293Z,10.20
2019-03-09T23:51:43.429Z,9.40
2019-03-09T23:54:11.806Z,9.00
2019-03-09T23:56:39.859Z,9.10
2019-03-09T23:59:08.003Z,8.50
